Time;durP1;ratioP1;P1;durP2;ratioP2;P2;SDS_P1;SDS_P2;PMS_P1;PMS_P2;Temp;Humidity;BMP_temperature;BMP_pressure;BME280_temperature;BME280_humidity;BME280_pressure;Samples;Min_cycle;Max_cycle;Signal;HPM_P1;HPM_P2
2022/07/05 00:02:02;;;;;;;4.87;3.20;;;;;;;14.41;76.96;101996.16;4749417;30;20078;-87
2022/07/05 00:04:27;;;;;;;7.03;3.30;;;;;;;14.38;76.85;101992.09;4749439;30;20128;-87
2022/07/05 00:09:36;;;;;;;3.60;2.80;;;;;;;14.26;77.83;101996.00;4749765;30;20189;-86
2022/07/05 00:12:02;;;;;;;4.57;2.60;;;;;;;14.16;77.75;101997.50;4751377;30;20313;-87
2022/07/05 00:14:28;;;;;;;5.03;2.78;;;;;;;14.13;78.31;101999.91;4749873;30;20112;-87
2022/07/05 00:16:53;;;;;;;3.80;2.40;;;;;;;14.09;78.35;101989.63;4749250;30;20158;-86
2022/07/05 00:19:19;;;;;;;2.67;2.47;;;;;;;14.07;78.76;101989.06;4748932;30;20044;-86
2022/07/05 00:21:44;;;;;;;3.22;2.50;;;;;;;14.03;78.02;101985.25;4750674;30;20027;-87
2022/07/05 00:24:10;;;;;;;4.40;2.80;;;;;;;13.95;78.76;101992.97;4749261;30;20074;-86
2022/07/05 00:26:35;;;;;;;3.70;2.47;;;;;;;13.98;79.23;101992.44;4748878;29;20048;-86
2022/07/05 00:29:00;;;;;;;6.07;2.50;;;;;;;13.86;79.56;101989.91;4749184;30;20097;-86
2022/07/05 00:31:26;;;;;;;4.65;3.15;;;;;;;13.84;79.68;101987.47;4748270;30;20044;-87
2022/07/05 00:33:51;;;;;;;6.17;2.87;;;;;;;13.86;79.63;101989.91;4748055;30;20405;-86
2022/07/05 00:36:16;;;;;;;4.83;3.30;;;;;;;13.78;80.88;101985.78;4749406;30;20406;-87
2022/07/05 00:38:43;;;;;;;6.63;2.97;;;;;;;13.71;79.97;101977.88;4748635;30;20036;-86
2022/07/05 00:41:08;;;;;;;8.27;3.00;;;;;;;13.74;80.22;101981.97;4750146;29;20047;-87
2022/07/05 00:44:04;;;;;;;4.03;2.33;;;;;;;13.67;79.74;101981.31;4749057;30;20538;-87
2022/07/05 00:46:29;;;;;;;3.80;2.63;;;;;;;13.62;80.72;101979.38;4757255;30;20073;-87
2022/07/05 00:48:57;;;;;;;5.27;2.80;;;;;;;13.58;80.49;101991.72;4749375;30;21260;-86
2022/07/05 00:51:23;;;;;;;3.28;2.33;;;;;;;13.47;81.19;101980.81;4747603;30;20071;-86
2022/07/05 00:53:49;;;;;;;3.43;2.67;;;;;;;13.47;80.96;101978.13;4748676;30;20168;-86
2022/07/05 00:56:14;;;;;;;3.70;2.47;;;;;;;13.44;80.97;101984.00;4747980;30;20878;-86
2022/07/05 00:58:40;;;;;;;4.97;2.72;;;;;;;13.45;80.96;101988.34;4748438;30;20031;-86
2022/07/05 01:01:08;;;;;;;3.73;2.90;;;;;;;13.38;81.63;101993.03;4748536;30;20054;-86
2022/07/05 01:03:34;;;;;;;5.55;2.78;;;;;;;13.27;81.41;101980.50;4748158;30;20027;-86
2022/07/05 01:06:06;;;;;;;5.53;2.95;;;;;;;13.32;80.55;101988.66;4748552;30;20992;-86
2022/07/05 01:08:35;;;;;;;5.40;3.15;;;;;;;13.29;81.28;101986.47;4751882;30;20100;-86
2022/07/05 01:11:00;;;;;;;3.67;2.22;;;;;;;13.29;81.70;101994.53;4748908;30;20494;-86
2022/07/05 01:13:26;;;;;;;5.13;2.97;;;;;;;13.21;81.86;101993.09;4748529;30;20138;-86
2022/07/05 01:15:58;;;;;;;4.55;2.92;;;;;;;13.14;82.23;102000.50;4748753;30;20044;-86
2022/07/05 01:18:24;;;;;;;4.43;2.85;;;;;;;13.05;82.29;101997.41;4761167;30;20039;-86
2022/07/05 01:20:50;;;;;;;6.70;3.15;;;;;;;12.92;82.93;101998.56;4749204;30;20035;-86
2022/07/05 01:23:19;;;;;;;4.73;3.00;;;;;;;12.97;82.59;101992.44;4748929;30;20048;-86
2022/07/05 01:25:46;;;;;;;4.75;3.30;;;;;;;12.93;82.77;102002.06;4748956;30;20070;-87
2022/07/05 01:28:12;;;;;;;4.40;3.50;;;;;;;12.84;83.71;101996.28;4749434;30;20111;-87
2022/07/05 01:30:44;;;;;;;4.70;3.08;;;;;;;12.78;83.59;101997.25;4747956;30;20830;-87
2022/07/05 01:33:09;;;;;;;5.53;3.65;;;;;;;12.79;84.23;101991.63;4747866;30;20791;-86
2022/07/05 01:35:36;;;;;;;8.50;3.43;;;;;;;12.71;83.34;101994.72;4748431;30;20044;-87
2022/07/05 01:38:03;;;;;;;4.93;3.00;;;;;;;12.68;84.02;102008.66;4752721;30;20038;-87
2022/07/05 01:40:28;;;;;;;5.82;3.67;;;;;;;12.66;84.78;102000.00;4748444;29;20068;-87
2022/07/05 01:42:54;;;;;;;6.67;3.70;;;;;;;12.65;84.70;101995.69;4750373;30;20040;-86
2022/07/05 01:48:21;;;;;;;5.35;3.28;;;;;;;12.56;84.84;102001.47;4740780;30;20047;-86
2022/07/05 01:50:53;;;;;;;6.40;3.80;;;;;;;12.49;84.73;101997.31;4748497;30;20039;-87
2022/07/05 01:53:26;;;;;;;3.70;3.30;;;;;;;12.46;85.30;101993.22;4761860;30;20036;-87
2022/07/05 01:55:52;;;;;;;4.53;3.42;;;;;;;12.49;84.62;102000.81;4748648;30;20117;-87
2022/07/05 01:58:17;;;;;;;6.73;3.87;;;;;;;12.42;84.72;101986.69;4748921;29;20918;-86
2022/07/05 02:00:51;;;;;;;3.90;3.17;;;;;;;12.43;85.43;101996.38;4751447;29;20069;-86
2022/07/05 02:03:16;;;;;;;4.57;3.43;;;;;;;12.43;85.54;101993.69;4752183;30;20317;-85
2022/07/05 02:05:43;;;;;;;4.90;3.38;;;;;;;12.40;85.95;101997.69;4752490;30;20039;-86
2022/07/05 02:08:10;;;;;;;8.07;3.78;;;;;;;12.34;85.48;101982.53;4752438;30;20040;-86
2022/07/05 02:10:39;;;;;;;4.93;3.55;;;;;;;12.34;85.46;101989.78;4751063;30;20036;-86
2022/07/05 02:13:05;;;;;;;5.70;4.30;;;;;;;12.32;84.75;101987.34;4751452;30;20043;-86
2022/07/05 02:15:33;;;;;;;5.68;3.63;;;;;;;12.22;85.72;101982.59;4754758;30;20035;-86
2022/07/05 02:17:58;;;;;;;5.93;3.67;;;;;;;12.24;85.42;101977.78;4765311;29;20043;-85
2022/07/05 02:20:24;;;;;;;5.37;3.90;;;;;;;12.29;85.79;101976.25;4752024;30;20389;-86
2022/07/05 02:22:49;;;;;;;6.93;3.70;;;;;;;12.34;85.42;101982.53;4751918;30;20046;-85
2022/07/05 02:25:14;;;;;;;6.83;3.93;;;;;;;12.35;85.16;101977.97;4753382;29;22109;-88
2022/07/05 02:27:40;;;;;;;5.35;4.18;;;;;;;12.32;85.38;101983.84;4754625;30;20039;-90
2022/07/05 02:30:06;;;;;;;7.00;4.33;;;;;;;12.20;85.84;101979.34;4750714;29;20070;-86
2022/07/05 02:32:33;;;;;;;7.20;4.03;;;;;;;12.13;86.69;101984.03;4751991;30;20155;-86
2022/07/05 02:35:01;;;;;;;7.40;4.75;;;;;;;12.03;87.03;101984.66;4752314;30;20043;-86
2022/07/05 02:37:27;;;;;;;8.10;4.23;;;;;;;11.94;87.13;101978.81;4752468;30;20493;-86
2022/07/05 02:39:52;;;;;;;6.20;4.47;;;;;;;11.91;87.23;101986.53;4753469;30;20315;-87
2022/07/05 02:42:17;;;;;;;5.33;4.53;;;;;;;11.87;87.92;101986.19;4750460;30;20047;-86
2022/07/05 02:44:43;;;;;;;7.43;4.80;;;;;;;11.88;87.55;101987.81;4758732;30;20070;-86
2022/07/05 02:47:08;;;;;;;5.20;4.53;;;;;;;11.84;87.84;101986.69;4761560;30;20126;-86
2022/07/05 02:49:33;;;;;;;7.30;4.70;;;;;;;11.84;87.42;101986.69;4750439;30;20032;-86
2022/07/05 02:51:58;;;;;;;7.97;5.00;;;;;;;11.86;87.55;101991.78;4750684;30;20126;-86
2022/07/05 02:54:33;;;;;;;7.83;5.40;;;;;;;11.78;87.92;101988.41;4751699;30;20039;-86
2022/07/05 02:56:58;;;;;;;6.88;5.10;;;;;;;11.79;87.49;101998.09;4752151;30;20036;-86
2022/07/05 02:59:23;;;;;;;7.97;5.28;;;;;;;11.74;87.77;101989.13;4751183;30;20043;-86
2022/07/05 03:01:49;;;;;;;7.40;5.53;;;;;;;11.66;88.09;101991.16;4752259;30;20632;-86
2022/07/05 03:04:14;;;;;;;6.67;5.40;;;;;;;11.66;88.40;101995.69;4751644;30;20047;-86
2022/07/05 03:06:39;;;;;;;7.37;5.83;;;;;;;11.65;89.58;101994.06;4752047;30;20039;-87
2022/07/05 03:09:05;;;;;;;9.80;6.30;;;;;;;11.64;90.58;101987.88;4752227;30;20048;-87
2022/07/05 03:11:30;;;;;;;8.73;5.67;;;;;;;11.68;90.88;101990.09;4752506;29;20067;-86
2022/07/05 03:13:56;;;;;;;7.20;5.87;;;;;;;11.69;90.86;101995.22;4751587;29;20075;-87
2022/07/05 03:16:23;;;;;;;8.83;6.00;;;;;;;11.71;90.56;101998.50;4752345;30;21951;-86
2022/07/05 03:18:49;;;;;;;9.77;5.30;;;;;;;11.74;90.00;102006.09;4751299;30;20040;-85
2022/07/05 03:21:14;;;;;;;10.48;5.90;;;;;;;11.68;89.98;102009.69;4755600;30;20400;-85
2022/07/05 03:23:39;;;;;;;10.03;5.70;;;;;;;11.63;90.61;102010.41;4751379;29;20050;-87
2022/07/05 03:26:05;;;;;;;9.53;6.20;;;;;;;11.59;90.67;102009.25;4751738;30;20048;-87
2022/07/05 03:28:30;;;;;;;8.17;5.63;;;;;;;11.57;90.44;102005.97;4752255;30;20103;-86
2022/07/05 03:30:55;;;;;;;8.70;6.10;;;;;;;11.52;90.69;102008.53;4752114;30;20189;-86
2022/07/05 03:33:20;;;;;;;9.67;6.47;;;;;;;11.47;91.31;102013.81;4751208;30;20174;-86
2022/07/05 03:35:46;;;;;;;10.60;6.40;;;;;;;11.46;90.74;102014.88;4751998;30;20106;-86
2022/07/05 03:38:11;;;;;;;9.43;6.97;;;;;;;11.45;91.79;102019.41;4751999;29;20040;-86
2022/07/05 03:40:36;;;;;;;8.77;6.23;;;;;;;11.48;90.89;102026.19;4754125;29;20634;-86
2022/07/05 03:43:02;;;;;;;13.00;6.93;;;;;;;11.49;90.39;102020.56;4751340;30;20677;-86
2022/07/05 03:45:33;;;;;;;9.57;7.50;;;;;;;11.52;90.82;102013.91;4752475;30;20166;-86
2022/07/05 03:48:00;;;;;;;12.40;7.35;;;;;;;11.59;91.48;102025.34;4753306;30;20032;-86
2022/07/05 03:50:25;;;;;;;9.02;6.68;;;;;;;11.63;91.88;102029.22;4753090;30;20062;-86
2022/07/05 03:52:54;;;;;;;12.02;7.97;;;;;;;11.72;91.69;102023.47;4751928;30;20214;-87
2022/07/05 03:55:19;;;;;;;9.13;6.97;;;;;;;11.80;90.96;102025.78;4751896;30;20171;-86
2022/07/05 03:57:45;;;;;;;11.87;7.47;;;;;;;11.86;91.54;102029.41;4751425;30;20068;-87
2022/07/05 04:00:11;;;;;;;10.73;7.63;;;;;;;11.96;91.41;102024.22;4753536;29;20123;-86
2022/07/05 04:02:37;;;;;;;8.75;7.38;;;;;;;12.03;91.79;102040.25;4753345;30;20375;-87
2022/07/05 04:05:02;;;;;;;13.70;7.40;;;;;;;12.16;90.74;102044.53;4751362;30;20058;-87
2022/07/05 04:07:28;;;;;;;10.63;7.27;;;;;;;12.21;90.63;102037.41;4752085;30;20092;-87
2022/07/05 04:09:53;;;;;;;10.50;7.60;;;;;;;12.34;90.63;102047.03;4754780;30;20040;-85
2022/07/05 04:12:18;;;;;;;8.93;7.70;;;;;;;12.46;89.64;102036.22;4749999;30;20418;-86
2022/07/05 04:14:43;;;;;;;11.30;7.43;;;;;;;12.62;88.91;102047.25;4753176;29;20952;-86
2022/07/05 04:17:09;;;;;;;14.27;8.10;;;;;;;12.69;89.54;102037.19;4749317;29;20123;-86
2022/07/05 04:19:34;;;;;;;9.87;7.73;;;;;;;12.82;89.31;102053.00;4750060;30;20036;-87
2022/07/05 04:21:59;;;;;;;10.27;7.47;;;;;;;12.84;88.98;102045.50;4749740;30;20044;-88
2022/07/05 04:24:25;;;;;;;10.13;6.77;;;;;;;13.03;88.52;102053.34;4751108;30;20039;-87
2022/07/05 04:26:50;;;;;;;12.52;7.15;;;;;;;13.14;87.18;102055.16;4757539;30;20032;-92
2022/07/05 04:29:16;;;;;;;10.33;7.53;;;;;;;13.23;86.66;102052.88;4768430;30;20046;-93
2022/07/05 04:31:42;;;;;;;9.60;6.95;;;;;;;13.26;86.08;102051.56;4781995;30;20036;-92
2022/07/05 04:34:07;;;;;;;11.63;7.83;;;;;;;13.37;87.05;102047.94;4782282;29;20034;-92
2022/07/05 04:36:33;;;;;;;12.03;8.10;;;;;;;13.46;87.30;102051.88;4785634;30;20057;-92
2022/07/05 04:38:58;;;;;;;11.18;7.93;;;;;;;13.53;86.21;102051.72;4773446;30;20065;-89
2022/07/05 04:41:24;;;;;;;10.63;7.40;;;;;;;13.64;85.38;102055.38;4767293;30;20122;-89
2022/07/05 04:43:49;;;;;;;12.13;7.70;;;;;;;13.67;86.21;102062.13;4769647;30;20036;-89
2022/07/05 04:46:14;;;;;;;10.33;8.07;;;;;;;13.70;86.18;102059.75;4771125;30;20027;-89
2022/07/05 04:48:42;;;;;;;10.43;7.90;;;;;;;13.80;85.38;102050.97;4771425;30;20024;-89
2022/07/05 04:51:27;;;;;;;11.70;7.53;;;;;;;13.90;84.75;102053.81;4771473;30;20050;-89
2022/07/05 04:53:53;;;;;;;12.82;7.28;;;;;;;13.90;84.31;102039.50;4768717;30;20040;-90
2022/07/05 04:56:18;;;;;;;12.88;7.40;;;;;;;14.17;83.75;102049.56;4765305;30;20034;-90
2022/07/05 04:58:57;;;;;;;11.57;7.17;;;;;;;14.34;82.89;102044.06;4786954;30;20028;-90
2022/07/05 05:01:22;;;;;;;18.48;7.80;;;;;;;14.38;82.48;102051.41;4771917;30;20186;-90
2022/07/05 05:03:47;;;;;;;12.73;6.90;;;;;;;14.50;82.14;102053.13;4772104;30;20517;-89
2022/07/05 05:06:14;;;;;;;14.63;7.87;;;;;;;14.51;81.88;102047.50;4769742;30;20091;-90
2022/07/05 05:08:41;;;;;;;10.43;6.80;;;;;;;14.65;80.97;102047.09;4772285;29;20032;-91
2022/07/05 05:11:07;;;;;;;10.65;6.95;;;;;;;14.74;80.71;102044.75;4769845;30;20028;-91
2022/07/05 05:13:32;;;;;;;12.18;6.60;;;;;;;15.02;80.24;102048.22;4775781;30;20038;-90
2022/07/05 05:15:57;;;;;;;9.40;6.73;;;;;;;16.20;77.10;102067.81;4758464;29;20036;-91
2022/07/05 05:18:26;;;;;;;14.93;7.33;;;;;;;16.91;73.25;102062.78;4762917;30;20032;-91
2022/07/05 05:20:53;;;;;;;11.30;7.15;;;;;;;16.75;72.61;102067.38;4759972;30;20035;-88
2022/07/05 05:23:24;;;;;;;14.93;7.78;;;;;;;16.42;73.91;102061.41;4767359;30;20043;-90
2022/07/05 05:25:51;;;;;;;14.97;7.70;;;;;;;16.17;75.44;102060.25;4769878;30;20048;-90
2022/07/05 05:28:17;;;;;;;10.07;7.67;;;;;;;16.15;76.07;102064.28;4773856;29;20309;-89
2022/07/05 05:31:00;;;;;;;11.50;7.88;;;;;;;16.13;75.91;102061.84;4762009;29;20123;-87
2022/07/05 05:33:26;;;;;;;16.00;6.93;;;;;;;16.34;75.59;102061.91;4763033;30;20893;-88
2022/07/05 05:35:54;;;;;;;13.10;8.07;;;;;;;16.39;75.34;102058.41;4766135;30;20028;-89
2022/07/05 05:38:21;;;;;;;10.23;6.95;;;;;;;16.47;76.08;102066.78;4762845;30;20094;-88
2022/07/05 05:40:47;;;;;;;10.93;7.10;;;;;;;16.76;74.76;102068.19;4763551;30;20036;-88
2022/07/05 05:43:12;;;;;;;12.25;7.45;;;;;;;16.88;75.14;102081.47;4791757;29;20035;-93
2022/07/05 05:45:38;;;;;;;10.47;7.30;;;;;;;17.03;73.97;102089.63;4781650;29;20271;-92
2022/07/05 05:48:03;;;;;;;10.03;6.83;;;;;;;17.11;74.41;102090.97;4769445;30;20111;-91
2022/07/05 05:50:33;;;;;;;10.23;7.25;;;;;;;17.21;72.81;102090.97;4772052;30;20036;-92
2022/07/05 05:52:59;;;;;;;8.15;6.93;;;;;;;17.32;73.08;102099.91;4770650;30;20043;-88
2022/07/05 05:55:26;;;;;;;13.53;6.90;;;;;;;17.20;73.19;102099.34;4762424;30;20421;-89
2022/07/05 05:57:52;;;;;;;13.25;6.75;;;;;;;17.19;74.24;102101.28;4760678;30;20036;-87
2022/07/05 06:00:19;;;;;;;15.23;7.10;;;;;;;17.27;74.30;102094.50;4773364;29;20056;-91
2022/07/05 06:02:46;;;;;;;14.95;6.70;;;;;;;17.36;73.40;102100.97;4768728;30;20042;-89
2022/07/05 06:05:12;;;;;;;14.75;7.63;;;;;;;17.45;73.23;102100.44;4768071;30;20124;-88
2022/07/05 06:07:47;;;;;;;10.40;7.18;;;;;;;17.60;72.84;102111.22;4777083;30;20853;-89
2022/07/05 06:10:18;;;;;;;15.68;6.95;;;;;;;17.76;72.34;102106.59;4777186;30;20036;-89
2022/07/05 06:12:43;;;;;;;10.47;6.50;;;;;;;18.01;71.01;102110.31;4771655;30;20054;-88
2022/07/05 06:15:10;;;;;;;10.57;7.73;;;;;;;18.19;69.98;102111.63;4902107;23;20323;-89
2022/07/05 06:17:38;;;;;;;11.23;7.05;;;;;;;18.34;69.00;102118.88;4841640;29;20038;-88
2022/07/05 06:20:06;;;;;;;13.27;7.22;;;;;;;18.45;67.87;102103.34;4845381;29;20034;-87
2022/07/05 06:22:32;;;;;;;11.05;7.32;;;;;;;18.62;67.30;102108.41;4847956;29;20054;-87
2022/07/05 06:24:57;;;;;;;10.80;7.43;;;;;;;18.79;66.28;102099.88;4845288;29;20097;-87
2022/07/05 06:27:22;;;;;;;10.53;6.50;;;;;;;18.92;66.54;102107.38;4846761;29;20010;-88
2022/07/05 06:29:47;;;;;;;11.80;6.80;;;;;;;19.16;66.06;102112.13;4844857;29;20056;-89
2022/07/05 06:32:13;;;;;;;11.97;6.33;;;;;;;19.30;64.94;102108.72;4849669;29;20038;-90
2022/07/05 06:34:38;;;;;;;17.80;6.87;;;;;;;19.43;64.52;102118.91;4846617;29;20037;-85
2022/07/05 06:37:04;;;;;;;14.23;7.13;;;;;;;19.42;65.18;102120.00;4846834;29;20390;-89
2022/07/05 06:39:38;;;;;;;14.10;6.73;;;;;;;19.52;65.87;102125.38;4848918;29;20026;-87
2022/07/05 06:42:09;;;;;;;11.50;6.22;;;;;;;19.78;64.85;102119.63;4847183;29;20128;-86
2022/07/05 06:44:35;;;;;;;15.80;6.45;;;;;;;20.00;63.83;102122.94;4849191;29;20081;-88
2022/07/05 06:47:00;;;;;;;11.77;6.03;;;;;;;19.98;62.31;102120.53;4851251;29;20041;-85
2022/07/05 06:49:25;;;;;;;12.27;6.03;;;;;;;20.12;62.42;102126.88;4852772;29;20037;-86
2022/07/05 06:51:51;;;;;;;15.93;6.20;;;;;;;20.12;60.34;102128.81;4848895;29;20038;-87
2022/07/05 06:54:16;;;;;;;18.07;6.30;;;;;;;20.27;61.33;102128.59;4839255;29;20125;-85
2022/07/05 06:56:41;;;;;;;18.77;6.03;;;;;;;20.28;59.40;102115.78;4834695;29;20030;-86
2022/07/05 06:59:06;;;;;;;10.20;6.10;;;;;;;20.59;59.73;102137.16;4831860;29;20380;-85
2022/07/05 07:01:32;;;;;;;15.20;6.13;;;;;;;20.67;59.70;102127.53;4845748;29;20042;-86
2022/07/05 07:04:00;;;;;;;12.17;5.67;;;;;;;20.70;59.56;102133.19;4831328;29;20038;-88
2022/07/05 07:06:25;;;;;;;12.35;6.30;;;;;;;20.53;58.52;102127.44;4846148;29;20030;-88
2022/07/05 07:11:35;;;;;;;12.48;6.68;;;;;;;20.41;59.13;102141.47;4849571;29;20053;-86
2022/07/05 07:14:00;;;;;;;10.10;6.05;;;;;;;20.31;60.47;102134.25;4850656;29;20090;-88
2022/07/05 07:16:26;;;;;;;9.13;6.23;;;;;;;20.46;61.10;102130.53;4851022;29;20085;-88
2022/07/05 07:19:09;;;;;;;12.43;6.47;;;;;;;20.95;59.85;102116.75;4915216;23;20058;-87
2022/07/05 07:21:36;;;;;;;11.00;6.35;;;;;;;21.45;57.34;102122.44;4833266;29;20058;-86
2022/07/05 07:24:01;;;;;;;8.63;4.97;;;;;;;21.75;56.47;102138.56;4913112;23;20069;-86
2022/07/05 07:26:27;;;;;;;8.33;3.87;;;;;;;21.90;56.99;102132.00;4858351;29;20038;-87
2022/07/05 07:28:52;;;;;;;11.02;4.05;;;;;;;22.16;56.31;102126.03;4863596;29;20022;-88
2022/07/05 07:31:17;;;;;;;5.47;3.30;;;;;;;22.52;55.87;102139.72;4865058;29;20108;-87
2022/07/05 07:36:20;;;;;;;8.02;4.53;;;;;;;22.26;54.95;102135.91;5116760;27;22429;-85
2022/07/05 07:39:07;;;;;;;10.23;4.67;;;;;;;22.26;54.91;102144.91;5100355;28;20032;-88
2022/07/05 07:41:32;;;;;;;9.35;3.28;;;;;;;22.31;55.94;102139.34;5100073;28;21861;-83
2022/07/05 07:44:03;;;;;;;10.52;3.70;;;;;;;22.35;55.51;102139.53;5124222;27;20119;-86
2022/07/05 07:46:32;;;;;;;5.77;3.40;;;;;;;22.61;56.14;102141.72;5085425;28;20257;-86
2022/07/05 07:48:58;;;;;;;8.02;3.72;;;;;;;22.83;54.41;102155.38;5075989;28;20052;-86
2022/07/05 07:51:23;;;;;;;10.75;4.25;;;;;;;22.99;54.04;102158.56;5079857;28;20043;-86
2022/07/05 07:54:01;;;;;;;14.23;4.90;;;;;;;23.01;54.36;102136.38;5086802;28;20106;-85
2022/07/05 07:56:32;;;;;;;8.43;4.80;;;;;;;22.99;53.92;102142.16;5087085;28;20095;-86
2022/07/05 07:58:58;;;;;;;13.25;4.75;;;;;;;22.93;53.84;102143.41;5086462;28;20113;-87
2022/07/05 08:01:26;;;;;;;10.95;4.30;;;;;;;23.31;53.95;102149.63;5086194;28;20052;-86
2022/07/05 08:03:52;;;;;;;13.10;5.05;;;;;;;23.49;53.15;102158.75;5083536;28;20051;-85
2022/07/05 08:06:17;;;;;;;8.73;4.00;;;;;;;23.46;53.07;102159.34;5083698;28;20058;-89
2022/07/05 08:08:49;;;;;;;10.13;4.30;;;;;;;23.28;53.35;102146.38;5087483;28;20024;-89
2022/07/05 08:11:14;;;;;;;10.17;3.90;;;;;;;23.14;52.83;102126.50;5107559;28;20018;-89
2022/07/05 08:13:57;;;;;;;17.63;4.90;;;;;;;23.42;53.33;102146.31;5111520;28;20290;-89
2022/07/05 08:16:23;;;;;;;15.02;5.30;;;;;;;23.44;52.34;102144.06;5112663;28;20050;-89
2022/07/05 08:21:34;;;;;;;11.00;4.30;;;;;;;23.75;50.75;102154.16;5091482;28;20074;-90
2022/07/05 08:24:23;;;;;;;9.43;4.38;;;;;;;23.92;52.05;102155.34;5090458;28;20035;-90
2022/07/05 08:26:49;;;;;;;12.00;4.43;;;;;;;24.14;52.00;102164.63;5047238;28;20069;-89
2022/07/05 08:29:14;;;;;;;10.17;3.80;;;;;;;24.29;51.02;102164.16;5105678;28;20032;-90
2022/07/05 08:31:43;;;;;;;13.77;4.83;;;;;;;24.46;50.21;102157.91;5105167;28;20052;-90
2022/07/05 08:34:18;;;;;;;10.33;4.30;;;;;;;24.82;50.49;102166.16;5090879;28;20291;-89
2022/07/05 08:36:44;;;;;;;11.40;5.10;;;;;;;25.04;48.44;102166.00;5090624;28;20088;-90
2022/07/05 08:39:14;;;;;;;8.70;4.55;;;;;;;25.12;48.99;102160.81;5090744;28;20036;-89
2022/07/05 08:41:41;;;;;;;9.10;4.60;;;;;;;25.23;47.87;102151.91;5090479;28;20044;-89
2022/07/05 08:44:08;;;;;;;8.95;4.60;;;;;;;25.13;47.81;102155.00;5091426;28;20012;-89
2022/07/05 08:46:40;;;;;;;8.48;4.60;;;;;;;25.11;48.79;102149.03;5088459;28;20012;-90
2022/07/05 08:49:06;;;;;;;11.95;5.35;;;;;;;25.30;48.27;102156.88;5098050;28;20039;-90
2022/07/05 08:51:38;;;;;;;14.18;6.30;;;;;;;25.12;48.10;102150.66;5097227;28;20033;-89
2022/07/05 08:54:04;;;;;;;11.97;5.50;;;;;;;25.08;48.84;102155.16;5097684;28;20036;-90
2022/07/05 08:56:30;;;;;;;12.43;6.13;;;;;;;25.12;48.81;102153.41;5097546;28;20287;-88
2022/07/05 08:58:55;;;;;;;11.75;5.95;;;;;;;24.98;48.93;102161.81;5096181;28;20048;-91
2022/07/05 09:01:21;;;;;;;13.17;7.03;;;;;;;24.41;49.15;102154.53;5076923;28;20080;-89
2022/07/05 09:03:49;;;;;;;13.07;5.93;;;;;;;23.76;50.38;102149.53;5070421;28;20401;-89
2022/07/05 09:06:26;;;;;;;11.73;5.38;;;;;;;23.88;52.28;102155.19;5063729;28;20088;-90
2022/07/05 09:08:59;;;;;;;10.48;5.45;;;;;;;24.11;50.66;102135.97;5057142;28;20032;-89
2022/07/05 09:11:36;;;;;;;13.77;5.03;;;;;;;24.75;50.22;102158.44;5058949;28;20088;-89
2022/07/05 09:14:36;;;;;;;11.10;5.67;;;;;;;24.91;47.90;102156.03;5075572;28;20315;-88
2022/07/05 09:17:02;;;;;;;11.63;5.03;;;;;;;25.25;46.28;102146.91;5058677;28;20024;-89
2022/07/05 09:19:30;;;;;;;8.57;5.28;;;;;;;25.58;47.20;102162.00;5075789;28;20033;-90
2022/07/05 09:22:05;;;;;;;11.13;5.43;;;;;;;25.79;46.96;102161.28;5090059;28;20028;-89
2022/07/05 09:24:31;;;;;;;8.67;4.47;;;;;;;25.83;43.85;102151.25;5070928;28;20035;-89
2022/07/05 09:27:16;;;;;;;10.73;4.13;;;;;;;25.76;45.50;102165.47;5042780;28;20295;-88
2022/07/05 09:29:55;;;;;;;10.02;4.00;;;;;;;25.60;44.84;102167.16;5047921;28;20040;-87
2022/07/05 09:32:25;;;;;;;7.15;3.90;;;;;;;25.49;45.10;102153.81;5045777;28;20029;-88
2022/07/05 09:34:50;;;;;;;7.05;4.13;;;;;;;25.96;44.59;102152.13;5041029;28;20037;-86
2022/07/05 09:37:15;;;;;;;8.30;4.20;;;;;;;26.11;42.78;102151.56;5046082;28;20044;-87
2022/07/05 09:39:42;;;;;;;11.60;3.97;;;;;;;25.91;44.14;102153.13;5053720;28;20061;-87
2022/07/05 09:42:23;;;;;;;10.38;4.18;;;;;;;25.42;43.63;102155.41;5043530;28;20380;-87
2022/07/05 09:44:57;;;;;;;7.20;2.97;;;;;;;25.03;43.25;102158.06;5040824;28;20035;-88
2022/07/05 09:47:29;;;;;;;7.13;2.78;;;;;;;24.99;44.11;102144.22;5043887;28;20040;-88
2022/07/05 09:50:03;;;;;;;7.22;4.18;;;;;;;25.78;42.75;102143.19;5044820;28;20170;-88
2022/07/05 09:52:38;;;;;;;8.93;3.75;;;;;;;26.29;43.99;102140.50;5044826;28;20036;-85
2022/07/05 09:55:19;;;;;;;7.72;3.92;;;;;;;27.03;42.50;102160.06;5044970;28;20388;-88
2022/07/05 09:57:50;;;;;;;8.43;3.20;;;;;;;27.01;40.65;102154.13;5037469;28;20048;-90
2022/07/05 10:00:18;;;;;;;9.40;3.93;;;;;;;26.77;41.03;102146.56;5045373;28;20292;-86
2022/07/05 10:02:50;;;;;;;7.90;3.97;;;;;;;26.30;40.94;102139.34;5059864;28;20076;-88
2022/07/05 10:05:23;;;;;;;10.05;3.72;;;;;;;25.93;39.91;102139.88;5044311;28;20044;-87
2022/07/05 10:07:49;;;;;;;6.97;3.40;;;;;;;25.69;41.53;102144.03;5043026;28;20074;-83
2022/07/05 10:10:20;;;;;;;9.02;3.25;;;;;;;25.50;40.03;102138.97;5043803;28;20033;-86
2022/07/05 10:12:48;;;;;;;6.18;2.85;;;;;;;25.41;42.03;102140.88;5042445;28;20037;-85
2022/07/05 10:15:18;;;;;;;5.20;3.42;;;;;;;25.41;41.43;102146.38;5049796;28;20036;-84
2022/07/05 10:17:52;;;;;;;6.35;3.47;;;;;;;25.33;41.88;102147.22;5052554;28;20124;-82
2022/07/05 10:20:42;;;;;;;4.95;3.03;;;;;;;25.42;42.01;102148.00;5050002;28;20063;-81
2022/07/05 10:23:10;;;;;;;7.97;3.70;;;;;;;24.96;40.78;102144.88;5035323;28;20102;-84
2022/07/05 10:25:37;;;;;;;7.27;3.80;;;;;;;24.53;42.18;102145.69;5044054;28;20299;-85
2022/07/05 10:28:04;;;;;;;8.85;4.65;;;;;;;24.52;43.09;102149.56;5042324;28;20032;-84
2022/07/05 10:30:36;;;;;;;7.53;4.45;;;;;;;24.27;44.70;102150.00;5041764;28;20038;-85
2022/07/05 10:33:03;;;;;;;7.80;5.18;;;;;;;23.65;44.99;102150.91;5039551;28;20124;-83
2022/07/05 10:35:29;;;;;;;10.40;4.85;;;;;;;23.64;46.99;102150.13;5042994;28;20182;-84
2022/07/05 10:37:55;;;;;;;7.07;4.67;;;;;;;24.15;45.45;102163.50;5044255;28;20100;-84
2022/07/05 10:40:20;;;;;;;7.90;4.50;;;;;;;24.70;44.45;102155.81;5044038;28;20301;-83
2022/07/05 10:42:54;;;;;;;10.65;5.43;;;;;;;25.16;44.25;102148.88;5042990;28;20236;-83
2022/07/05 10:45:39;;;;;;;7.88;5.07;;;;;;;25.62;43.93;102156.66;5041203;28;20143;-85
2022/07/05 10:48:29;;;;;;;9.00;4.40;;;;;;;26.09;42.59;102156.59;5041121;28;20069;-86
2022/07/05 10:50:57;;;;;;;7.63;5.00;;;;;;;26.11;40.98;102142.53;5041876;28;20297;-86
2022/07/05 10:53:32;;;;;;;7.32;5.18;;;;;;;25.61;40.11;102149.56;5042562;28;20035;-84
2022/07/05 10:56:03;;;;;;;6.28;4.95;;;;;;;25.13;41.90;102140.47;5043358;28;20037;-85
2022/07/05 10:58:29;;;;;;;10.98;4.25;;;;;;;24.68;43.76;102144.38;5041428;28;20043;-85
2022/07/05 11:01:25;;;;;;;7.57;4.00;;;;;;;24.49;44.17;102143.59;5073738;28;20029;-90
2022/07/05 11:04:02;;;;;;;5.88;3.63;;;;;;;24.76;44.32;102143.59;5043145;28;20468;-87
2022/07/05 11:06:46;;;;;;;6.45;4.22;;;;;;;25.02;44.31;102140.00;5039759;28;21857;-84
2022/07/05 11:09:11;;;;;;;7.53;3.90;;;;;;;25.91;41.56;102147.63;5040838;28;20056;-84
2022/07/05 11:11:52;;;;;;;7.67;3.70;;;;;;;26.30;41.55;102155.81;5044275;28;20041;-84
2022/07/05 11:14:20;;;;;;;6.65;3.40;;;;;;;26.33;38.54;102157.13;5043337;28;20029;-85
2022/07/05 11:16:46;;;;;;;5.45;3.13;;;;;;;26.07;40.18;102156.13;5077006;28;20044;-84
2022/07/05 11:19:18;;;;;;;5.40;2.72;;;;;;;25.63;39.30;102150.03;5045400;28;20023;-84
2022/07/05 11:22:04;;;;;;;6.65;2.45;;;;;;;25.44;41.08;102153.19;5058248;28;20082;-84
2022/07/05 11:24:36;;;;;;;4.63;2.50;;;;;;;25.27;40.36;102148.50;5044572;28;20079;-84
2022/07/05 11:27:03;;;;;;;4.00;1.90;;;;;;;25.33;40.69;102149.97;5046288;28;20039;-84
2022/07/05 11:29:45;;;;;;;5.13;2.20;;;;;;;25.44;40.46;102150.44;5043672;28;20308;-84
2022/07/05 11:32:18;;;;;;;4.60;2.05;;;;;;;25.17;40.27;102145.00;5042095;28;20387;-85
2022/07/05 11:34:51;;;;;;;4.45;2.10;;;;;;;24.99;41.48;102152.44;5044248;28;20118;-85
2022/07/05 11:37:24;;;;;;;4.85;2.42;;;;;;;24.93;41.23;102151.81;5044986;28;20656;-85
2022/07/05 11:40:14;;;;;;;4.80;2.45;;;;;;;25.27;42.34;102145.78;5046173;28;20028;-85
2022/07/05 11:42:52;;;;;;;5.63;1.80;;;;;;;25.94;41.99;102141.50;5037532;28;20041;-84